createdAt,value
2022-12-29T00:00:07.891Z,7.10
2022-12-29T00:03:30.930Z,7.10
2022-12-29T00:06:53.305Z,7.10
2022-12-29T00:10:14.892Z,7.10
2022-12-29T00:13:36.451Z,7.00
2022-12-29T00:16:58.373Z,6.90
2022-12-29T00:20:21.322Z,7.10
2022-12-29T00:23:42.902Z,7.30
2022-12-29T00:27:12.068Z,7.60
2022-12-29T00:30:33.637Z,7.70
2022-12-29T00:33:55.175Z,7.80
2022-12-29T00:37:18.318Z,7.90
2022-12-29T00:40:39.872Z,7.90
2022-12-29T00:44:01.488Z,7.80
2022-12-29T00:47:23.049Z,7.70
2022-12-29T00:50:44.804Z,7.70
2022-12-29T00:54:07.715Z,7.70
2022-12-29T00:57:29.292Z,7.70
2022-12-29T01:00:50.848Z,7.70
2022-12-29T01:04:12.691Z,7.70
2022-12-29T01:07:34.261Z,7.70
2022-12-29T01:11:00.826Z,7.80
2022-12-29T01:14:23.112Z,7.70
2022-12-29T01:17:44.670Z,7.60
2022-12-29T01:21:07.125Z,7.60
2022-12-29T01:24:28.883Z,7.60
2022-12-29T01:27:51.779Z,7.60
2022-12-29T01:31:14.346Z,7.60
2022-12-29T01:34:35.951Z,7.60
2022-12-29T01:37:57.741Z,7.70
2022-12-29T01:41:19.312Z,7.70
2022-12-29T01:44:50.065Z,7.80
2022-12-29T01:48:12.555Z,7.80
2022-12-29T01:51:36.360Z,7.90
2022-12-29T01:54:58.192Z,8.00
2022-12-29T01:58:21.658Z,8.10
2022-12-29T02:01:44.815Z,8.20
2022-12-29T02:05:09.919Z,8.30
2022-12-29T02:08:31.493Z,8.40
2022-12-29T02:11:53.160Z,8.60
2022-12-29T02:15:14.976Z,8.80
2022-12-29T02:18:44.261Z,9.10
2022-12-29T02:22:11.008Z,9.30
2022-12-29T02:25:58.917Z,9.30
2022-12-29T02:29:41.276Z,9.50
2022-12-29T02:33:07.551Z,9.60
2022-12-29T02:36:35.060Z,9.60
2022-12-29T02:40:01.767Z,9.60
2022-12-29T02:43:25.515Z,9.60
2022-12-29T02:46:52.467Z,9.70
2022-12-29T02:50:18.553Z,9.70
2022-12-29T02:53:40.360Z,9.80
2022-12-29T02:57:01.905Z,9.80
2022-12-29T03:00:23.465Z,9.80
2022-12-29T03:03:49.187Z,9.80
2022-12-29T03:07:15.802Z,9.80
2022-12-29T03:10:41.735Z,9.80
2022-12-29T03:14:05.545Z,9.80
2022-12-29T03:17:30.046Z,9.80
2022-12-29T03:20:53.424Z,9.80
2022-12-29T03:24:16.653Z,9.90
2022-12-29T03:27:41.692Z,9.80
2022-12-29T03:31:04.062Z,9.70
2022-12-29T03:34:26.328Z,9.80
2022-12-29T03:37:51.141Z,9.80
2022-12-29T03:41:16.774Z,9.70
2022-12-29T03:44:39.013Z,9.80
2022-12-29T03:48:00.608Z,9.90
2022-12-29T03:51:22.182Z,9.90
2022-12-29T03:54:43.739Z,10.00
2022-12-29T03:58:06.659Z,10.10
2022-12-29T04:01:28.270Z,10.10
2022-12-29T04:04:49.912Z,10.00
2022-12-29T04:08:11.494Z,9.90
2022-12-29T04:11:33.525Z,10.00
2022-12-29T04:14:57.556Z,9.90
2022-12-29T04:18:19.113Z,10.00
2022-12-29T04:21:40.669Z,10.00
2022-12-29T04:25:02.217Z,9.90
2022-12-29T04:28:24.038Z,9.80
2022-12-29T04:31:47.180Z,9.80
2022-12-29T04:35:09.080Z,9.70
2022-12-29T04:38:30.681Z,9.70
2022-12-29T04:41:52.257Z,9.70
2022-12-29T04:45:13.853Z,9.70
2022-12-29T04:48:37.161Z,9.70
2022-12-29T04:51:58.724Z,9.60
2022-12-29T04:55:20.307Z,9.60
2022-12-29T04:58:41.866Z,9.50
2022-12-29T05:02:03.654Z,9.60
2022-12-29T05:05:26.684Z,9.60
2022-12-29T05:08:50.017Z,9.50
2022-12-29T05:12:11.577Z,9.40
2022-12-29T05:15:33.117Z,9.50
2022-12-29T05:18:55.073Z,9.50
2022-12-29T05:22:18.193Z,9.50
2022-12-29T05:25:40.072Z,9.60
2022-12-29T05:29:01.705Z,9.60
2022-12-29T05:32:23.312Z,9.70
2022-12-29T05:35:45.068Z,9.60
2022-12-29T05:39:07.959Z,9.50
2022-12-29T05:42:29.541Z,9.40
2022-12-29T05:45:51.106Z,9.30
2022-12-29T05:49:12.689Z,9.30
2022-12-29T05:52:34.267Z,9.30
2022-12-29T05:55:57.157Z,9.30
2022-12-29T05:59:18.695Z,9.30
2022-12-29T06:02:40.437Z,9.30
2022-12-29T06:06:02.130Z,9.40
2022-12-29T06:09:23.705Z,9.60
2022-12-29T06:12:46.865Z,9.60
2022-12-29T06:16:08.497Z,9.50
2022-12-29T06:19:30.063Z,9.50
2022-12-29T06:22:51.606Z,9.50
2022-12-29T06:26:13.165Z,9.50
2022-12-29T06:29:36.797Z,9.50
2022-12-29T06:32:58.865Z,9.50
2022-12-29T06:36:20.448Z,9.40
2022-12-29T06:39:42.257Z,9.40
2022-12-29T06:43:03.805Z,9.40
2022-12-29T06:46:26.835Z,9.40
2022-12-29T06:49:48.429Z,9.60
2022-12-29T06:53:09.993Z,9.70
2022-12-29T06:56:31.580Z,9.70
2022-12-29T06:59:53.409Z,9.80
2022-12-29T07:03:16.383Z,9.90
2022-12-29T07:06:38.763Z,10.00
2022-12-29T07:10:00.328Z,9.90
2022-12-29T07:13:21.886Z,9.90
2022-12-29T07:16:43.556Z,9.80
2022-12-29T07:20:07.787Z,9.90
2022-12-29T07:23:29.470Z,9.90
2022-12-29T07:26:51.016Z,9.90
2022-12-29T07:30:13.020Z,9.90
2022-12-29T07:33:34.612Z,9.90
2022-12-29T07:36:57.535Z,9.90
2022-12-29T07:40:19.103Z,9.80
2022-12-29T07:43:40.798Z,9.80
2022-12-29T07:47:02.467Z,9.80
2022-12-29T07:50:24.127Z,9.80
2022-12-29T07:53:47.056Z,9.80
2022-12-29T07:57:08.622Z,9.80
2022-12-29T08:00:30.212Z,9.90
2022-12-29T08:03:57.079Z,10.00
2022-12-29T08:07:19.167Z,10.20
2022-12-29T08:10:42.079Z,10.40
2022-12-29T08:14:03.766Z,10.50
2022-12-29T08:17:25.339Z,10.60
2022-12-29T08:20:51.079Z,10.60
2022-12-29T08:24:15.709Z,10.80
2022-12-29T08:27:38.642Z,10.90
2022-12-29T08:31:01.020Z,11.00
2022-12-29T08:34:22.701Z,11.00
2022-12-29T08:37:44.275Z,11.10
2022-12-29T08:41:05.880Z,11.20
2022-12-29T08:44:28.953Z,11.20
2022-12-29T08:51:12.432Z,11.30
2022-12-29T08:54:34.180Z,11.40
2022-12-29T08:57:55.738Z,11.40
2022-12-29T09:01:18.896Z,11.30
2022-12-29T09:04:40.596Z,11.20
2022-12-29T09:08:02.211Z,11.10
2022-12-29T09:11:24.753Z,11.10
2022-12-29T09:14:46.799Z,11.00
2022-12-29T09:18:13.651Z,11.00
2022-12-29T09:21:37.874Z,11.00
2022-12-29T09:24:59.458Z,11.00
2022-12-29T09:28:21.360Z,11.10
2022-12-29T09:31:42.994Z,11.10
2022-12-29T09:35:06.274Z,11.20
2022-12-29T09:38:27.945Z,11.30
2022-12-29T09:41:53.532Z,11.40
2022-12-29T09:45:16.639Z,11.40
2022-12-29T09:48:40.085Z,11.50
2022-12-29T09:52:04.813Z,11.70
2022-12-29T09:55:31.094Z,11.80
2022-12-29T09:58:54.549Z,11.90
2022-12-29T10:02:22.008Z,12.00
2022-12-29T10:05:47.069Z,12.10
2022-12-29T10:09:13.731Z,12.20
2022-12-29T10:12:43.297Z,12.20
2022-12-29T10:16:09.361Z,12.00
2022-12-29T10:19:42.696Z,11.80
2022-12-29T10:23:18.406Z,11.70
2022-12-29T10:26:42.273Z,11.70
2022-12-29T10:30:04.324Z,11.70
2022-12-29T10:33:33.445Z,11.70
2022-12-29T10:36:56.677Z,11.80
2022-12-29T10:40:21.614Z,12.00
2022-12-29T10:43:47.516Z,12.00
2022-12-29T10:47:12.844Z,12.20
2022-12-29T10:50:34.694Z,12.10
2022-12-29T10:53:58.768Z,11.90
2022-12-29T10:57:25.174Z,11.80
2022-12-29T11:00:51.330Z,11.70
2022-12-29T11:04:21.163Z,11.70
2022-12-29T11:07:42.733Z,11.70
2022-12-29T11:11:05.027Z,11.70
2022-12-29T11:14:28.003Z,11.80
2022-12-29T11:17:51.568Z,11.90
2022-12-29T11:21:25.869Z,12.10
2022-12-29T11:24:48.540Z,12.20
2022-12-29T11:28:15.321Z,12.20
2022-12-29T11:31:41.218Z,12.20
2022-12-29T11:35:04.827Z,12.20
2022-12-29T11:38:31.803Z,12.00
2022-12-29T11:41:54.185Z,12.00
2022-12-29T11:45:16.914Z,11.90
2022-12-29T11:48:39.720Z,12.00
2022-12-29T11:52:02.650Z,11.90
2022-12-29T11:55:25.793Z,11.90
2022-12-29T11:58:47.339Z,11.90
2022-12-29T12:02:19.951Z,12.00
2022-12-29T12:05:43.314Z,12.00
2022-12-29T12:09:10.156Z,11.90
2022-12-29T12:12:33.908Z,11.80
2022-12-29T12:15:58.553Z,11.60
2022-12-29T12:19:25.630Z,11.60
2022-12-29T12:22:51.431Z,11.50
2022-12-29T12:26:16.223Z,11.50
2022-12-29T12:29:39.463Z,11.60
2022-12-29T12:33:04.410Z,11.70
2022-12-29T12:36:32.971Z,11.70
2022-12-29T12:40:05.183Z,11.70
2022-12-29T12:43:37.652Z,11.60
2022-12-29T12:47:06.736Z,11.60
2022-12-29T12:50:32.969Z,11.60
2022-12-29T12:54:00.985Z,11.50
2022-12-29T12:57:28.796Z,11.50
2022-12-29T13:00:57.878Z,11.50
2022-12-29T13:04:27.465Z,11.70
2022-12-29T13:07:55.836Z,11.60
2022-12-29T13:11:22.125Z,11.60
2022-12-29T13:14:51.997Z,11.60
2022-12-29T13:18:20.140Z,11.60
2022-12-29T13:21:56.164Z,11.60
2022-12-29T13:25:24.461Z,11.50
2022-12-29T13:28:49.724Z,11.50
2022-12-29T13:32:18.568Z,11.50
2022-12-29T13:35:47.991Z,11.40
2022-12-29T13:39:14.858Z,11.40
2022-12-29T13:42:41.490Z,11.40
2022-12-29T13:46:05.916Z,11.50
2022-12-29T13:49:28.304Z,11.40
2022-12-29T13:52:56.431Z,11.30
2022-12-29T13:56:19.964Z,11.40
2022-12-29T13:59:45.232Z,11.40
2022-12-29T14:03:31.440Z,11.30
2022-12-29T14:07:03.870Z,11.30
2022-12-29T14:10:29.652Z,11.30
2022-12-29T14:13:51.588Z,11.40
2022-12-29T14:17:15.260Z,11.40
2022-12-29T14:20:37.885Z,11.40
2022-12-29T14:24:21.967Z,11.30
2022-12-29T14:27:45.668Z,11.30
2022-12-29T14:31:30.275Z,11.10
2022-12-29T14:34:52.977Z,11.00
2022-12-29T14:38:16.542Z,10.90
2022-12-29T14:41:38.883Z,10.80
2022-12-29T14:45:03.438Z,10.80
2022-12-29T14:48:30.156Z,10.70
2022-12-29T14:51:53.158Z,10.60
2022-12-29T14:55:32.790Z,10.60
2022-12-29T14:58:55.691Z,10.50
2022-12-29T15:02:20.933Z,10.50
2022-12-29T15:05:44.702Z,10.40
2022-12-29T15:09:11.179Z,10.30
2022-12-29T15:12:36.703Z,10.30
2022-12-29T15:15:58.292Z,10.30
2022-12-29T15:19:23.455Z,10.30
2022-12-29T15:22:45.398Z,10.30
2022-12-29T15:26:07.951Z,10.30
2022-12-29T15:29:30.948Z,10.20
2022-12-29T15:32:52.515Z,10.20
2022-12-29T15:36:18.860Z,10.20
2022-12-29T15:39:40.413Z,10.30
2022-12-29T15:43:11.532Z,10.40
2022-12-29T15:46:33.186Z,10.60
2022-12-29T15:49:57.898Z,10.60
2022-12-29T15:53:22.854Z,10.70
2022-12-29T15:56:44.723Z,10.80
2022-12-29T16:00:21.856Z,10.80
2022-12-29T16:03:43.654Z,10.70
2022-12-29T16:07:06.018Z,10.70
2022-12-29T16:10:32.688Z,10.70
2022-12-29T16:13:55.426Z,10.70
2022-12-29T16:17:18.605Z,10.70
2022-12-29T16:20:41.862Z,10.70
2022-12-29T16:24:06.219Z,10.80
2022-12-29T16:27:32.836Z,10.80
2022-12-29T16:31:03.492Z,10.80
2022-12-29T16:34:26.404Z,10.80
2022-12-29T16:37:48.228Z,10.70
2022-12-29T16:41:09.852Z,10.70
2022-12-29T16:44:33.024Z,10.70
2022-12-29T16:48:11.021Z,10.70
2022-12-29T16:51:33.796Z,10.60
2022-12-29T16:54:56.069Z,10.60
2022-12-29T16:58:19.210Z,10.50
2022-12-29T17:01:42.264Z,10.50
2022-12-29T17:05:04.132Z,10.50
2022-12-29T17:08:25.716Z,10.40
2022-12-29T17:11:52.485Z,10.40
2022-12-29T17:15:21.777Z,10.30
2022-12-29T17:18:44.670Z,10.10
2022-12-29T17:22:10.503Z,10.00
2022-12-29T17:25:33.248Z,9.90
2022-12-29T17:28:54.895Z,9.80
2022-12-29T17:32:16.655Z,9.70
2022-12-29T17:35:39.611Z,9.60
2022-12-29T17:39:01.174Z,9.50
2022-12-29T17:42:22.864Z,9.40
2022-12-29T17:45:46.994Z,9.30
2022-12-29T17:49:10.452Z,9.30
2022-12-29T17:52:33.358Z,9.20
2022-12-29T17:55:54.977Z,9.10
2022-12-29T17:59:17.120Z,9.10
2022-12-29T18:02:39.004Z,9.10
2022-12-29T18:06:00.880Z,9.10
2022-12-29T18:09:23.802Z,9.00
2022-12-29T18:12:46.294Z,8.90
2022-12-29T18:16:07.983Z,8.80
2022-12-29T18:19:34.064Z,8.70
2022-12-29T18:22:57.735Z,8.60
2022-12-29T18:26:27.294Z,8.60
2022-12-29T18:29:49.818Z,8.60
2022-12-29T18:33:19.269Z,8.60
2022-12-29T18:36:43.151Z,8.70
2022-12-29T18:40:05.328Z,8.70
2022-12-29T18:43:28.209Z,8.70
2022-12-29T18:46:50.071Z,8.80
2022-12-29T18:50:11.754Z,8.80
2022-12-29T18:53:33.847Z,8.90
2022-12-29T18:56:55.431Z,8.90
2022-12-29T19:00:19.306Z,8.90
2022-12-29T19:03:40.994Z,9.00
2022-12-29T19:07:02.627Z,9.00
2022-12-29T19:10:25.160Z,9.00
2022-12-29T19:13:46.736Z,9.00
2022-12-29T19:17:11.201Z,9.00
2022-12-29T19:20:33.852Z,9.00
2022-12-29T19:23:55.402Z,9.00
2022-12-29T19:27:16.972Z,9.00
2022-12-29T19:30:38.638Z,8.90
2022-12-29T19:34:02.059Z,8.90
2022-12-29T19:37:23.619Z,8.90
2022-12-29T19:40:46.943Z,8.80
2022-12-29T19:44:08.512Z,8.80
2022-12-29T19:47:31.795Z,8.70
2022-12-29T19:50:55.050Z,8.60
2022-12-29T19:54:16.710Z,8.40
2022-12-29T19:57:38.252Z,8.30
2022-12-29T20:01:04.191Z,8.20
2022-12-29T20:04:25.806Z,8.10
2022-12-29T20:07:48.761Z,8.10
2022-12-29T20:11:11.703Z,8.00
2022-12-29T20:14:33.244Z,7.90
2022-12-29T20:21:36.314Z,7.80
2022-12-29T20:25:26.094Z,7.80
2022-12-29T20:28:41.000Z,7.70
2022-12-29T20:32:02.582Z,7.70
2022-12-29T20:35:24.265Z,7.60
2022-12-29T20:38:46.389Z,7.60
2022-12-29T20:42:09.306Z,7.50
2022-12-29T20:45:31.056Z,7.50
2022-12-29T20:48:52.864Z,7.50
2022-12-29T20:52:14.474Z,7.40
2022-12-29T20:55:40.347Z,7.40
2022-12-29T21:02:45.964Z,7.40
2022-12-29T21:06:08.055Z,7.30
2022-12-29T21:09:29.607Z,7.30
2022-12-29T21:12:51.228Z,7.30
2022-12-29T21:16:17.656Z,7.30
2022-12-29T21:19:39.214Z,7.30
2022-12-29T21:23:01.445Z,7.30
2022-12-29T21:26:23.579Z,7.30
2022-12-29T21:29:45.211Z,7.20
2022-12-29T21:33:08.181Z,7.20
2022-12-29T21:36:30.272Z,7.20
2022-12-29T21:39:51.829Z,7.10
2022-12-29T21:43:14.345Z,7.10
2022-12-29T21:46:37.650Z,7.10
2022-12-29T21:50:00.619Z,7.10
2022-12-29T21:53:22.183Z,7.00
2022-12-29T21:56:43.899Z,7.00
2022-12-29T22:00:06.746Z,6.90
2022-12-29T22:03:28.439Z,6.90
2022-12-29T22:06:51.398Z,6.90
2022-12-29T22:10:13.183Z,6.90
2022-12-29T22:13:35.291Z,6.80
2022-12-29T22:16:57.004Z,6.80
2022-12-29T22:20:18.952Z,6.80
2022-12-29T22:23:41.873Z,6.80
2022-12-29T22:27:03.513Z,6.70
2022-12-29T22:30:25.070Z,6.70
2022-12-29T22:33:46.641Z,6.70
2022-12-29T22:37:08.189Z,6.80
2022-12-29T22:40:31.108Z,6.80
2022-12-29T22:43:52.709Z,6.80
2022-12-29T22:47:14.284Z,6.90
2022-12-29T22:50:38.189Z,6.90
2022-12-29T22:53:59.746Z,6.90
2022-12-29T22:57:22.641Z,6.90
2022-12-29T23:00:44.198Z,6.90
2022-12-29T23:04:46.912Z,6.80
2022-12-29T23:07:47.527Z,6.90
2022-12-29T23:11:10.052Z,6.90
2022-12-29T23:14:33.041Z,6.80
2022-12-29T23:17:54.602Z,6.80
2022-12-29T23:21:16.815Z,6.80
2022-12-29T23:24:38.457Z,6.80
2022-12-29T23:28:00.053Z,6.80
2022-12-29T23:31:23.802Z,6.70
2022-12-29T23:34:45.383Z,6.80
2022-12-29T23:38:06.946Z,6.80
2022-12-29T23:41:28.582Z,6.70
2022-12-29T23:44:50.151Z,6.70
2022-12-29T23:48:13.062Z,6.70
2022-12-29T23:51:34.635Z,6.70
2022-12-29T23:54:56.164Z,6.80
2022-12-29T23:58:17.715Z,6.70
